Weather reports worldwide

Advertisment
Berlin/Tempelhof, Germany (10384): temperature & dewpoint: 16.01.2019 04:00:00 - 22.01.2019 04:00:00 (CET)Berlin/Tempelhof, Germany (10384): temperature 5cm & temperature -5cm: 16.01.2019 04:00:00 - 22.01.2019 04:00:00 (CET)Berlin/Tempelhof, Germany (10384): temperature -20cm & temperature -100cm: 16.01.2019 04:00:00 - 22.01.2019 04:00:00 (CET)Berlin/Tempelhof, Germany (10384): wind speed & gusts: 16.01.2019 04:00:00 - 22.01.2019 04:00:00 (CET)Berlin/Tempelhof, Germany (10384): wind direction: 16.01.2019 04:00:00 - 22.01.2019 04:00:00 (CET)Berlin/Tempelhof, Germany (10384): reduced air pressure: 16.01.2019 04:00:00 - 22.01.2019 04:00:00 (CET)Berlin/Tempelhof, Germany (10384): sunshine duration: 16.01.2019 04:00:00 - 22.01.2019 04:00:00 (CET)Berlin/Tempelhof, Germany (10384): precipitation: 16.01.2019 04:00:00 - 22.01.2019 04:00:00 (CET)
Date & Time tt [°C] td [°C] tt 5cm [°C] tt -5cm [°C] tt -20cm [°C] tt -100cm [°C] ff [km/h] ff [kn] fx [km/h] fx [kn] dd ppp [hPa] sd [min] rr [mm]
22.01.2019 04:00:00 -5,5 -6,8 -5,9 -0,1 1,6 5,6 6 3 10 5 S 1016,4 0 0,0
22.01.2019 03:00:00 -5,6 -6,9 -7,2 0,0 1,6 5,6 6 4 10 5 S 1017,2 0 0,0
22.01.2019 02:00:00 -5,2 -6,6 -7,2 0,1 1,6 5,6 6 3 10 6 S 1017,8 0 0,0
22.01.2019 01:00:00 -4,7 -6,2 -7,5 0,2 1,6 5,6 6 3 13 7 SSE 1018,2 0 0,0
22.01.2019 00:00:00 -4,2 -5,9 -5,9 0,2 1,7 5,6 9 5 16 9 SSW 1018,5 0 0,0
21.01.2019 23:00:00 -3,9 -5,7 -5,4 0,3 1,7 5,6 10 5 16 9 SSW 1018,8 0 0,0
21.01.2019 22:00:00 -3,7 -5,3 -4,7 0,3 1,7 5,6 8 4 15 8 SSW 1019,2 0 0,0
21.01.2019 21:00:00 -3,8 -5,3 -4,1 0,3 1,7 5,6 9 5 16 9 S 1019,7 0 0,0
21.01.2019 20:00:00 -3,9 -5,4 -4,7 0,3 1,7 5,6 10 5 18 10 S 1019,7 0 0,0
21.01.2019 19:00:00 -3,5 -5,3 -5,3 0,4 1,7 5,6 10 5 22 12 SSW 1020,0 0 0,0
21.01.2019 18:00:00 -3,2 -5,3 -3,8 0,4 1,7 5,7 11 6 18 10 S 1020,1 0 0,0
21.01.2019 17:00:00 -2,8 -5,1 -3,6 0,4 1,7 5,7 10 6 20 11 SSW 1020,7 0 0,0
21.01.2019 16:00:00 -2,1 -4,9 -2,1 0,4 1,7 5,7 10 6 16 9 S 1020,8 45 0,0
21.01.2019 15:00:00 -1,8 -4,9 -2,0 0,4 1,7 5,7 10 5 18 10 SSW 1021,4 57 0,0
21.01.2019 14:00:00 -2,7 -5,0 -2,3 0,4 1,7 5,7 9 5 20 11 SSW 1022,3 10 0,0
21.01.2019 13:00:00 -2,9 -5,1 -1,6 0,4 1,8 5,7 12 6 19 10 SSW 1022,7 0 0,0
21.01.2019 12:00:00 -3,3 -5,2 -2,0 0,4 1,8 5,7 9 5 17 9 SSW 1023,4 0 0,0
21.01.2019 11:00:00 -3,6 -5,3 -3,0 0,4 1,8 5,7 10 6 16 9 WSW 1024,0 0 0,0
21.01.2019 10:00:00 -3,9 -5,4 -3,3 0,4 1,8 5,7 9 5 17 9 WSW 1023,9 0 0,0
21.01.2019 09:00:00 -3,9 -5,5 -3,6 0,4 1,8 5,7 9 5 16 8 SW 1023,9 0 0,0
21.01.2019 08:00:00 -3,6 -5,4 -3,5 0,4 1,8 5,7 9 5 15 8 SSW 1023,8 0 0,0
21.01.2019 07:00:00 -3,3 -5,2 -3,4 0,4 1,8 5,8 9 5 15 8 SSW 1023,5 0 0,0
21.01.2019 06:00:00 -3,4 -5,2 -3,4 0,4 1,8 5,8 8 4 17 9 SW 1023,6 0 0,0
21.01.2019 05:00:00 -3,4 -5,3 -3,4 0,4 1,8 5,8 7 4 13 7 NW 1023,9 0 0,0
21.01.2019 04:00:00 -3,2 -5,2 -3,4 0,4 1,8 5,8 7 4 12 7 WNW 1024,0 0 0,0
21.01.2019 03:00:00 -3,1 -5,2 -3,3 0,4 1,8 5,8 6 3 14 8 WNW 1024,1 0 0,0
21.01.2019 02:00:00 -2,7 -4,8 -3,0 0,4 1,8 5,8 4 2 14 8 NW 1024,0 0 0,0
21.01.2019 01:00:00 -2,7 -4,8 -2,9 0,3 1,8 5,8 2 1 6 3 E 1024,0 0 0,0
21.01.2019 00:00:00 -2,7 -4,7 -2,9 0,3 1,9 5,8 3 2 9 5 WSW 1024,0 0 0,0
20.01.2019 23:00:00 -2,7 -4,8 -2,8 0,3 1,9 5,8 5 3 10 6 ENE 1023,8 0 0,0
20.01.2019 22:00:00 -2,5 -4,4 -2,6 0,3 1,9 5,8 3 2 11 6 NNW 1023,5 0 0,0
20.01.2019 21:00:00 -2,4 -4,1 -2,6 0,3 1,9 5,8 5 3 7 4 E 1023,0 0 0,0
20.01.2019 20:00:00 -2,4 -4,1 -2,8 0,3 1,9 5,9 4 2 8 4 NE 1022,3 0 0,0
20.01.2019 19:00:00 -2,2 -4,1 -2,7 0,3 1,9 5,9 6 3 14 8 NE 1021,8 0 0,0
20.01.2019 18:00:00 -1,8 -3,8 -2,7 0,2 1,9 5,9 9 5 12 7 NNE 1021,4 0 0,0
20.01.2019 17:00:00 -1,9 -4,0 -3,8 0,2 2,0 5,9 8 5 18 10 ENE 1021,0 0 0,0
20.01.2019 16:00:00 -0,4 -3,1 -1,3 0,2 2,0 5,9 12 6 15 8 ENE 1020,6 48 0,0
20.01.2019 15:00:00 0,9 -3,5 0,7 0,2 2,0 5,9 7 4 13 7 ENE 1020,2 60 0,0
20.01.2019 14:00:00 0,8 -3,3 3,5 0,2 2,0 5,9 5 3 9 5 ENE 1020,0 60 0,0
20.01.2019 13:00:00 0,7 -2,9 2,9 0,2 2,1 5,9 4 2 10 5 ESE 1020,2 60 0,0
20.01.2019 12:00:00 -1,0 -3,5 0,8 0,2 2,1 5,9 5 3 11 6 ENE 1020,1 60 0,0
20.01.2019 11:00:00 -2,2 -4,1 -1,3 0,2 2,1 5,9 7 4 10 5 E 1020,2 60 0,0
20.01.2019 10:00:00 -4,1 -5,4 -5,1 0,2 2,2 5,9 6 3 11 6 ENE 1019,8 60 0,0
20.01.2019 09:00:00 -6,0 -7,4 -9,1 0,3 2,2 5,9 7 4 9 5 ENE 1019,3 13 0,0
20.01.2019 08:00:00 -6,3 -7,7 -9,9 0,3 2,3 6,0 8 5 10 5 ENE 1019,0 0 0,0
20.01.2019 07:00:00 -5,3 -6,2 -10,8 0,4 2,3 6,0 3 2 10 5 ESE 1018,6 0 0,0
20.01.2019 06:00:00 -4,9 -6,0 -7,9 0,5 2,4 6,0 8 4 10 5 E 1018,5 0 0,0
20.01.2019 05:00:00 -4,8 -5,9 -9,0 0,6 2,4 6,0 5 3 9 5 E 1018,5 0 0,0
20.01.2019 04:00:00 -4,6 -5,6 -9,9 0,7 2,5 6,0 4 2 8 4 E 1018,6 0 0,0
20.01.2019 03:00:00 -4,4 -5,8 -8,7 0,7 2,5 6,0 7 4 9 5 E 1018,6 0 0,0
20.01.2019 02:00:00 -4,2 -5,2 -9,4 0,8 2,6 6,0 5 3 6 3 ENE 1018,8 0 0,0
20.01.2019 01:00:00 -3,7 -5,3 -9,0 0,9 2,7 6,0 4 2 9 5 E 1019,0 0 0,0
20.01.2019 00:00:00 -2,5 -4,1 -5,6 1,0 2,7 6,0 6 3 9 5 ESE 1019,2 0 0,0
19.01.2019 23:00:00 -2,1 -3,8 -5,0 1,1 2,8 6,0 6 3 9 5 ESE 1019,4 0 0,0
19.01.2019 22:00:00 -1,6 -3,6 -5,0 1,2 2,9 6,0 6 3 10 5 ESE 1019,5 0 0,0
19.01.2019 21:00:00 -1,3 -3,4 -4,8 1,3 2,9 6,0 7 4 10 5 ESE 1019,5 0 0,0
19.01.2019 20:00:00 -0,6 -3,2 -3,4 1,5 3,0 6,0 8 4 11 6 ESE 1019,6 0 0,0
19.01.2019 19:00:00 0,3 -2,9 -3,5 1,6 3,1 6,0 6 4 9 5 ESE 1019,6 0 0,0
19.01.2019 18:00:00 0,6 -2,7 -3,0 1,9 3,1 6,0 6 4 10 5 SE 1019,7 0 0,0
19.01.2019 17:00:00 1,1 -2,5 -2,5 2,3 3,2 6,1 6 4 12 7 SSE 1019,8 0 0,0
19.01.2019 16:00:00 2,0 -2,2 -0,1 3,2 3,1 6,1 6 4 13 7 S 1019,9 0 0,0
19.01.2019 15:00:00 3,0 -2,2 2,5 3,7 2,9 6,1 6 3 10 5 S 1020,0 38 0,0
19.01.2019 14:00:00 3,6 -1,7 3,6 3,5 2,8 6,1 5 3 11 6 SW 1020,2 60 0,0
19.01.2019 13:00:00 2,8 -2,2 3,9 2,6 2,7 6,1 6 4 13 7 SSW 1020,7 60 0,0
19.01.2019 12:00:00 2,6 -1,9 3,7 1,4 2,8 6,1 5 3 11 6 SSW 1021,2 60 0,0
19.01.2019 11:00:00 1,5 -2,1 2,7 1,1 2,8 6,1 6 3 9 5 SSW 1021,4 60 0,0
19.01.2019 10:00:00 0,2 -2,4 -1,4 1,1 2,8 6,1 6 3 11 6 SW 1021,4 24 0,0
19.01.2019 09:00:00 -0,7 -2,8 -3,1 1,2 2,9 6,1 5 3 14 8 SSW 1021,1 0 0,0
19.01.2019 08:00:00 0,1 -2,8 -1,9 1,2 2,9 6,1 6 3 10 6 SSW 1020,8 0 0,0
19.01.2019 07:00:00 0,0 -3,0 -5,2 1,3 2,9 6,1 5 3 17 9 WSW 1020,6 0 0,0
19.01.2019 06:00:00 0,7 -3,0 -0,2 1,3 3,0 6,1 9 5 20 11 W 1020,7 0 0,0
19.01.2019 05:00:00 0,6 -3,3 -1,0 1,4 3,0 6,1 9 5 17 9 W 1020,6 0 0,0
19.01.2019 04:00:00 0,9 -3,3 -0,3 1,4 3,1 6,1 9 5 21 11 W 1020,7 0 0,0
19.01.2019 03:00:00 1,0 -3,0 0,3 1,5 3,1 6,1 11 6 18 10 W 1020,8 0 0,0
19.01.2019 02:00:00 0,8 -2,9 -0,1 1,6 3,2 6,1 14 8 25 13 WNW 1020,6 0 0,0
19.01.2019 01:00:00 1,0 -3,0 0,3 1,7 3,2 6,1 16 9 23 12 WNW 1020,8 0 0,0
19.01.2019 00:00:00 1,0 -2,6 0,1 1,7 3,2 6,1 14 8 27 15 WNW 1020,7 0 0,0
18.01.2019 23:00:00 1,4 -1,8 0,8 1,9 3,3 6,1 14 8 29 16 W 1020,5 0 0,0
18.01.2019 22:00:00 1,6 -1,5 1,1 1,9 3,3 6,1 13 7 21 12 W 1020,2 0 0,0
18.01.2019 21:00:00 1,4 -1,3 0,8 1,9 3,3 6,1 11 6 20 11 WSW 1019,8 0 0,0
18.01.2019 20:00:00 1,3 -1,4 0,8 1,8 3,4 6,1 12 6 20 11 W 1019,5 0 0,0
18.01.2019 19:00:00 0,9 -3,2 0,4 1,9 3,5 6,1 13 7 23 13 WSW 1019,1 0 0,0
18.01.2019 18:00:00 1,0 -3,7 0,4 2,0 3,6 6,1 13 7 20 11 SW 1018,9 0 0,0
18.01.2019 17:00:00 1,2 -4,4 -0,9 2,4 3,6 6,2 11 6 19 11 SW 1018,6 0 0,0
18.01.2019 16:00:00 1,9 -4,7 0,0 3,3 3,6 6,1 13 7 28 15 WSW 1018,6 51 0,0
18.01.2019 15:00:00 2,1 -4,6 0,9 3,8 3,5 6,1 20 11 30 16 W 1018,5 60 0,0
18.01.2019 14:00:00 2,2 -4,8 2,5 3,8 3,4 6,1 16 9 28 15 W 1018,2 60 0,0
18.01.2019 13:00:00 1,7 -3,6 2,5 3,1 3,4 6,1 18 10 26 14 W 1018,0 58 0,0
18.01.2019 12:00:00 1,1 -3,4 1,7 2,1 3,4 6,1 15 8 29 16 W 1017,6 60 0,0
18.01.2019 11:00:00 0,1 -3,6 0,2 1,5 3,4 6,1 20 11 32 17 WNW 1017,4 60 0,0
18.01.2019 10:00:00 -0,9 -4,1 -2,0 1,6 3,5 6,1 19 10 33 18 WNW 1016,6 60 0,0
18.01.2019 09:00:00 -1,3 -5,5 -2,8 1,7 3,6 6,1 23 12 40 22 NW 1015,2 17 0,0
18.01.2019 08:00:00 -0,9 -5,2 -2,1 1,8 3,7 6,1 25 13 38 21 NW 1013,7 0 0,0
18.01.2019 07:00:00 -0,4 -4,3 -1,5 1,9 3,8 6,1 19 11 37 20 NW 1012,3 0 0,0
18.01.2019 06:00:00 -0,3 -2,8 -1,0 2,0 3,9 6,1 22 12 32 18 NW 1010,8 0 0,0
18.01.2019 05:00:00 -0,5 -2,6 -1,5 2,1 4,0 6,1 23 12 39 21 WNW 1009,6 0 0,0
18.01.2019 04:00:00 -0,4 -2,3 -0,9 2,4 4,1 6,1 24 13 44 24 NW 1008,1 0 0,0
18.01.2019 03:00:00 0,2 -2,3 -0,1 2,7 4,2 6,1 37 20 48 26 NNW 1006,5 0 0,1
18.01.2019 02:00:00 1,3 -0,4 0,6 2,9 4,3 6,1 19 11 46 25 W 1004,8 0 0,2
18.01.2019 01:00:00 2,0 -0,4 1,0 3,1 4,3 6,1 22 12 46 25 W 1004,1 0 0,1
18.01.2019 00:00:00 2,5 0,1 1,6 3,3 4,4 6,1 19 11 31 17 WSW 1003,4 0 0,0
17.01.2019 23:00:00 2,8 0,9 1,6 3,5 4,4 6,1 15 8 36 20 WSW 1002,6 0 0,3
17.01.2019 22:00:00 3,2 1,5 2,5 3,7 4,5 6,1 20 11 33 18 W 1001,7 0 0,0
17.01.2019 21:00:00 3,1 1,6 2,6 3,7 4,5 6,1 18 10 34 18 W 1000,7 0 0,1
17.01.2019 20:00:00 3,1 1,5 2,3 3,9 4,6 6,1 17 9 37 20 W 999,5 0 1,3
17.01.2019 19:00:00 3,7 1,6 2,7 4,0 4,6 6,1 15 8 30 16 W 998,8 0 1,9
17.01.2019 18:00:00 5,5 1,8 4,1 4,0 4,7 6,1 11 6 24 13 WSW 998,5 0 0,0
17.01.2019 17:00:00 5,6 0,7 3,9 4,3 4,7 6,1 11 6 23 13 SSW 998,5 0 0,0
17.01.2019 16:00:00 6,5 0,3 4,5 5,0 4,7 6,1 13 7 33 18 SSW 998,6 22 0,0
17.01.2019 15:00:00 7,0 -0,8 6,1 5,4 4,6 6,1 21 12 39 21 WSW 998,9 39 0,0
17.01.2019 14:00:00 7,0 -0,2 7,2 5,0 4,5 6,1 25 13 40 22 WSW 999,4 12 0,0
17.01.2019 13:00:00 6,4 0,8 6,4 4,8 4,4 6,1 20 11 35 19 W 999,8 0 0,0
17.01.2019 12:00:00 6,1 1,2 6,0 4,4 4,3 6,1 19 10 37 20 WSW 1000,4 0 0,0
17.01.2019 11:00:00 5,9 2,0 5,9 4,1 4,2 6,1 19 10 38 21 WSW 1000,5 0 0,0
17.01.2019 10:00:00 5,7 1,8 5,4 3,8 4,2 6,1 18 10 32 17 W 1000,0 0 0,0
17.01.2019 09:00:00 5,6 1,7 5,0 3,7 4,2 6,1 22 12 38 21 WSW 999,5 0 0,0
17.01.2019 08:00:00 5,6 1,4 4,9 3,5 4,2 6,1 20 11 39 21 W 999,1 0 0,0
17.01.2019 07:00:00 5,3 0,9 4,5 3,4 4,2 6,1 18 10 30 16 SW 998,5 0 0,0
17.01.2019 06:00:00 4,6 0,4 3,9 3,2 4,2 6,1 16 9 29 16 SW 998,5 0 0,0
17.01.2019 05:00:00 4,4 0,0 3,7 3,1 4,3 6,1 15 8 35 19 SW 998,4 0 0,0
17.01.2019 04:00:00 3,9 -0,3 3,4 2,9 4,3 6,1 16 9 31 17 SW 998,7 0 0,0
17.01.2019 03:00:00 3,1 -0,2 1,8 2,9 4,4 6,1 11 6 19 11 SSW 999,2 0 0,0
17.01.2019 02:00:00 2,9 -0,2 1,6 3,1 4,5 6,1 11 6 22 12 SSW 999,6 0 0,0
17.01.2019 01:00:00 3,2 -0,2 1,7 3,4 4,6 6,1 11 6 20 11 SSW 1000,4 0 0,0
17.01.2019 00:00:00 3,7 0,0 2,1 3,7 4,7 6,1 13 7 24 13 SSW 1001,4 0 0,0
16.01.2019 23:00:00 4,4 0,3 3,0 4,1 4,8 6,1 15 8 26 14 SSW 1002,2 0 0,0
16.01.2019 22:00:00 5,0 0,0 4,3 4,3 4,8 6,1 17 9 32 17 SW 1002,8 0 0,0
16.01.2019 21:00:00 5,4 0,4 4,7 4,5 4,9 6,1 20 11 37 20 SW 1003,5 0 0,0
16.01.2019 20:00:00 5,7 0,9 5,0 4,7 4,9 6,1 18 10 35 19 SW 1004,1 0 0,0
16.01.2019 19:00:00 6,1 1,6 5,4 4,8 4,9 6,1 19 10 41 22 SW 1004,6 0 0,0
16.01.2019 18:00:00 6,4 2,4 5,7 5,0 4,9 6,1 17 9 39 21 SW 1005,0 0 0,0
16.01.2019 17:00:00 6,7 2,9 6,0 5,1 4,9 6,1 20 11 34 18 SW 1005,6 0 0,0
16.01.2019 16:00:00 6,8 3,2 6,2 5,2 4,8 6,1 20 11 33 18 SW 1006,0 0 0,0
16.01.2019 15:00:00 6,9 3,3 6,4 5,3 4,8 6,1 16 9 27 15 SW 1006,3 0 0,0
16.01.2019 14:00:00 6,9 3,4 6,7 5,3 4,7 6,1 16 9 28 15 SW 1006,8 0 0,0
16.01.2019 13:00:00 6,8 3,6 6,7 5,1 4,7 6,1 15 8 27 15 SW 1007,4 0 0,0
16.01.2019 12:00:00 6,2 3,4 5,8 5,0 4,7 6,1 16 9 25 14 SW 1008,1 0 0,0
16.01.2019 11:00:00 6,3 3,9 5,5 4,9 4,6 6,1 17 9 35 19 SW 1008,6 0 0,0
16.01.2019 10:00:00 6,6 3,7 6,2 4,9 4,6 6,1 17 9 28 15 WSW 1008,6 0 0,0
16.01.2019 09:00:00 6,4 3,6 5,8 4,8 4,6 6,1 16 9 34 18 WSW 1008,7 0 0,0
16.01.2019 08:00:00 6,5 3,6 5,6 4,9 4,6 6,1 17 9 33 18 WSW 1008,5 0 0,0
16.01.2019 07:00:00 6,8 3,9 5,7 4,9 4,5 6,1 18 10 36 20 W 1008,4 0 0,0
16.01.2019 06:00:00 6,7 4,9 5,8 5,0 4,5 6,1 18 10 35 19 W 1008,4 0 0,2
16.01.2019 05:00:00 6,8 5,2 6,0 5,0 4,4 6,1 23 13 38 20 W 1008,6 0 0,3
16.01.2019 04:00:00 7,1 5,2 6,3 4,9 4,3 6,1 27 14 43 23 W 1008,5 0 0,0

tt = temperature
td = dewpoint
tt 5cm = temperature 5cm
tt -5cm = temperature -5cm
tt -20cm = temperature -20cm
tt -100cm = temperature -100cm
ff = wind speed
fx = gusts
dd = wind direction
ppp = reduced air pressure
sd = sunshine duration
rr = precipitation

Next stations